Time;durP1;ratioP1;P1;durP2;ratioP2;P2;SDS_P1;SDS_P2;PMS_P1;PMS_P2;Temp;Humidity;BMP_temperature;BMP_pressure;BME280_temperature;BME280_humidity;BME280_pressure;Samples;Min_cycle;Max_cycle;Signal;HPM_P1;HPM_P2
2020/12/03 08:34:51;;;;;;;10.67;9.63;;;24.40;40.10;;;;;;5145415;27;20914;-73
2020/12/03 08:37:19;;;;;;;10.83;9.83;;;24.20;39.90;;;;;;5124291;27;20477;-69
2020/12/03 08:39:51;;;;;;;11.57;10.47;;;24.20;39.80;;;;;;5124936;28;20181;-76
2020/12/03 08:42:17;;;;;;;10.40;9.40;;;24.20;41.60;;;;;;5123689;27;20411;-74
2020/12/03 08:44:43;;;;;;;10.27;9.37;;;24.20;41.00;;;;;;5125284;27;20849;-81
2020/12/03 08:47:29;;;;;;;10.27;9.17;;;24.20;42.10;;;;;;5123707;27;20422;-75
2020/12/03 08:49:56;;;;;;;9.03;8.13;;;24.40;42.20;;;;;;5124018;28;20407;-77
2020/12/03 08:52:24;;;;;;;9.23;8.43;;;24.60;41.70;;;;;;5124386;27;20420;-81
2020/12/03 08:54:50;;;;;;;11.97;10.87;;;24.80;41.50;;;;;;5124529;27;20440;-80
2020/12/03 08:57:20;;;;;;;10.60;9.60;;;24.70;38.90;;;;;;5108511;28;20518;-80
2020/12/03 08:59:57;;;;;;;9.87;8.93;;;24.60;38.20;;;;;;5101630;28;20262;-75
2020/12/03 09:02:25;;;;;;;11.07;10.07;;;24.90;38.70;;;;;;5106100;28;20913;-75
2020/12/03 09:04:57;;;;;;;10.60;9.70;;;25.30;38.00;;;;;;5105729;28;20439;-74
2020/12/03 09:07:27;;;;;;;9.93;8.93;;;25.70;37.20;;;;;;5105558;28;20503;-74
2020/12/03 09:09:53;;;;;;;10.57;9.57;;;26.00;36.80;;;;;;5106054;28;20443;-75
2020/12/03 09:12:23;;;;;;;9.60;8.70;;;26.40;36.60;;;;;;5105404;28;20412;-74
2020/12/03 09:14:53;;;;;;;10.30;9.30;;;26.60;36.20;;;;;;5105684;28;20521;-75
2020/12/03 09:17:20;;;;;;;10.30;9.30;;;26.80;35.90;;;;;;5105453;28;20410;-76
2020/12/03 09:19:46;;;;;;;9.60;8.70;;;27.00;35.70;;;;;;5105479;28;20547;-75
2020/12/03 09:22:16;;;;;;;10.13;9.23;;;27.20;35.50;;;;;;5104536;28;20522;-73
2020/12/03 09:24:46;;;;;;;10.63;9.60;;;27.50;35.40;;;;;;5105533;28;20246;-75
2020/12/03 09:27:14;;;;;;;10.93;9.93;;;27.60;35.10;;;;;;5104794;28;20413;-78
2020/12/03 09:29:39;;;;;;;10.50;9.50;;;27.80;34.40;;;;;;5105314;28;20438;-77
2020/12/03 09:32:10;;;;;;;9.57;8.73;;;27.60;34.30;;;;;;5106032;28;20422;-78
2020/12/03 09:34:37;;;;;;;10.83;9.83;;;27.30;34.40;;;;;;5105685;28;20807;-77
2020/12/03 09:37:04;;;;;;;12.00;10.90;;;27.10;34.50;;;;;;5104769;28;20418;-75
2020/12/03 09:39:31;;;;;;;10.83;9.93;;;26.90;34.80;;;;;;5103963;28;20428;-75
2020/12/03 09:41:59;;;;;;;9.33;8.40;;;26.70;37.60;;;;;;5105030;28;20416;-73
2020/12/03 09:44:26;;;;;;;9.60;8.73;;;26.30;38.30;;;;;;5101468;28;20462;-74
2020/12/03 09:46:55;;;;;;;8.97;8.17;;;26.30;39.00;;;;;;5091645;28;20443;-74
2020/12/03 09:49:21;;;;;;;9.33;8.43;;;26.30;39.30;;;;;;5085055;28;20425;-72
2020/12/03 09:51:47;;;;;;;10.40;9.50;;;26.30;39.50;;;;;;5088993;28;20416;-72
2020/12/03 09:54:13;;;;;;;10.60;9.50;;;26.30;39.30;;;;;;5088997;28;20461;-72
2020/12/03 09:56:39;;;;;;;11.87;10.20;;;26.10;39.30;;;;;;5089042;28;20245;-74
2020/12/03 09:59:12;;;;;;;14.20;11.10;;;26.00;40.00;;;;;;5089514;28;20431;-74
2020/12/03 10:01:58;;;;;;;12.03;10.50;;;25.90;40.70;;;;;;5088822;28;20899;-74
2020/12/03 10:04:40;;;;;;;12.60;11.27;;;25.80;41.20;;;;;;5087969;28;21218;-71
2020/12/03 10:07:29;;;;;;;15.17;11.50;;;25.60;41.70;;;;;;5088727;28;20416;-71
2020/12/03 10:10:16;;;;;;;13.80;11.67;;;25.50;42.90;;;;;;5087790;28;20424;-71
2020/12/03 10:13:39;;;;;;;13.23;12.03;;;25.40;41.00;;;;;;5088608;28;20880;-72
2020/12/03 10:16:20;;;;;;;13.20;12.00;;;25.40;40.30;;;;;;5085177;28;20429;-73
2020/12/03 10:18:58;;;;;;;14.50;13.30;;;25.60;40.50;;;;;;5081459;28;20413;-73
2020/12/03 10:21:26;;;;;;;16.33;14.90;;;26.10;39.80;;;;;;5074579;28;20416;-73
2020/12/03 10:24:17;;;;;;;18.77;16.97;;;26.20;38.60;;;;;;5087143;28;20458;-72
2020/12/03 10:26:50;;;;;;;16.50;15.00;;;26.00;38.60;;;;;;5086446;28;20416;-74
2020/12/03 10:29:33;;;;;;;17.73;16.23;;;25.90;38.70;;;;;;5088827;28;20471;-72
2020/12/03 10:32:07;;;;;;;16.13;14.63;;;25.80;38.80;;;;;;5088320;28;21177;-72
2020/12/03 10:34:41;;;;;;;18.63;17.03;;;25.70;41.00;;;;;;5087235;28;20483;-71
2020/12/03 10:37:28;;;;;;;16.77;15.27;;;25.70;38.90;;;;;;5089165;28;20408;-73
2020/12/03 10:40:13;;;;;;;15.13;11.80;;;25.70;39.00;;;;;;5089938;28;20417;-70
2020/12/03 10:42:43;;;;;;;13.70;12.37;;;25.50;43.20;;;;;;5090651;28;20750;-70
2020/12/03 10:45:22;;;;;;;17.20;12.57;;;25.30;43.20;;;;;;5089133;28;20450;-71
2020/12/03 10:47:56;;;;;;;17.43;12.67;;;25.20;42.50;;;;;;5090270;28;20416;-72
2020/12/03 10:50:51;;;;;;;15.77;11.20;;;25.00;42.50;;;;;;5089144;28;21075;-72
2020/12/03 10:53:28;;;;;;;14.60;12.70;;;24.90;44.30;;;;;;5089723;28;20566;-72
2020/12/03 10:55:58;;;;;;;13.57;11.93;;;24.80;44.20;;;;;;5089636;28;20474;-72
2020/12/03 10:59:04;;;;;;;14.20;12.77;;;24.70;44.30;;;;;;5087674;28;20423;-71
2020/12/03 11:01:32;;;;;;;15.63;13.87;;;24.60;42.90;;;;;;5089910;28;20417;-72
2020/12/03 11:04:03;;;;;;;15.30;13.60;;;24.70;41.90;;;;;;5089052;28;20422;-71
2020/12/03 11:06:30;;;;;;;14.40;13.00;;;24.80;41.40;;;;;;5090616;28;20417;-71
2020/12/03 11:08:56;;;;;;;14.37;13.03;;;24.90;41.00;;;;;;5089744;28;20416;-72
2020/12/03 11:11:24;;;;;;;14.20;12.90;;;24.90;40.50;;;;;;5090313;28;20448;-70
2020/12/03 11:13:50;;;;;;;14.60;13.10;;;24.90;40.30;;;;;;5089247;28;20547;-70
2020/12/03 11:16:23;;;;;;;14.43;12.90;;;24.90;40.30;;;;;;5089860;28;20444;-71
2020/12/03 11:18:49;;;;;;;13.77;12.40;;;24.90;39.80;;;;;;5086343;28;20424;-73
2020/12/03 11:21:30;;;;;;;13.53;12.27;;;24.90;40.30;;;;;;5088189;28;20863;-69
2020/12/03 11:24:23;;;;;;;13.47;12.20;;;24.90;39.60;;;;;;5089160;28;20494;-71
2020/12/03 11:26:50;;;;;;;12.63;11.37;;;24.90;39.40;;;;;;5089497;28;20902;-72
2020/12/03 11:29:16;;;;;;;14.47;13.07;;;24.90;39.30;;;;;;5089007;28;20878;-73
2020/12/03 11:31:44;;;;;;;20.23;17.50;;;24.90;39.70;;;;;;5089477;28;20947;-72
2020/12/03 11:34:11;;;;;;;18.33;16.33;;;24.80;39.10;;;;;;5088384;28;20542;-72
2020/12/03 11:36:39;;;;;;;17.53;15.73;;;24.70;39.10;;;;;;5088852;28;20419;-71
2020/12/03 11:39:09;;;;;;;17.87;16.07;;;24.70;39.00;;;;;;5089040;28;21141;-73
2020/12/03 11:49:44;;;;;;;22.23;19.83;;;24.60;39.10;;;;;;5089055;28;20432;-70
2020/12/03 11:52:12;;;;;;;20.10;18.00;;;24.60;39.20;;;;;;5089226;28;20263;-70
2020/12/03 11:54:38;;;;;;;20.07;18.10;;;24.60;39.00;;;;;;5086548;28;21639;-72
2020/12/03 11:57:04;;;;;;;19.73;17.63;;;24.60;39.30;;;;;;5087103;28;20440;-72
2020/12/03 11:59:35;;;;;;;18.00;16.20;;;24.60;38.90;;;;;;5087649;28;20266;-71
2020/12/03 12:02:08;;;;;;;18.50;16.73;;;24.50;40.10;;;;;;5088858;28;20409;-70
2020/12/03 12:07:50;;;;;;;16.93;15.23;;;24.40;39.30;;;;;;5088450;28;20474;-73
2020/12/03 12:10:21;;;;;;;17.27;15.53;;;24.50;39.30;;;;;;5081570;28;20426;-71
2020/12/03 12:12:47;;;;;;;17.13;14.90;;;24.50;39.10;;;;;;5087705;28;20415;-71
2020/12/03 12:15:13;;;;;;;16.27;14.67;;;24.60;39.20;;;;;;5087381;28;20794;-72
2020/12/03 12:17:39;;;;;;;19.20;17.30;;;24.70;39.40;;;;;;5088018;28;20202;-71
2020/12/03 12:20:07;;;;;;;17.80;15.93;;;24.80;39.10;;;;;;5087618;28;20191;-71
2020/12/03 12:22:33;;;;;;;18.83;16.83;;;24.80;39.20;;;;;;5088438;28;20991;-70
2020/12/03 12:24:58;;;;;;;19.77;17.17;;;24.90;39.00;;;;;;5087562;28;20435;-70
2020/12/03 12:27:24;;;;;;;19.43;17.27;;;24.90;39.50;;;;;;5087892;28;20554;-71
2020/12/03 12:29:50;;;;;;;20.23;18.27;;;24.80;39.10;;;;;;5089180;28;20232;-71
2020/12/03 12:32:16;;;;;;;20.20;18.10;;;24.80;39.10;;;;;;5088599;28;20572;-72
2020/12/03 12:34:43;;;;;;;20.00;18.00;;;24.80;38.90;;;;;;5088465;28;20239;-72
2020/12/03 12:37:09;;;;;;;18.60;16.70;;;24.80;38.90;;;;;;5087050;28;20182;-73
2020/12/03 12:39:35;;;;;;;17.53;15.60;;;24.70;38.30;;;;;;5088573;28;20476;-72
2020/12/03 12:42:03;;;;;;;17.27;15.57;;;24.70;38.40;;;;;;5089061;28;20922;-72
2020/12/03 12:44:30;;;;;;;20.40;14.30;;;24.70;39.20;;;;;;5089278;28;20592;-72
2020/12/03 12:46:56;;;;;;;12.50;11.33;;;24.60;40.80;;;;;;5087266;28;20476;-74
2020/12/03 12:49:23;;;;;;;12.83;11.63;;;24.60;41.90;;;;;;5083232;28;20439;-72
2020/12/03 12:51:49;;;;;;;14.53;11.60;;;24.60;42.70;;;;;;5086293;28;20797;-72
2020/12/03 12:54:15;;;;;;;12.30;11.17;;;24.50;43.20;;;;;;5085574;28;21005;-73
2020/12/03 12:56:42;;;;;;;12.60;11.30;;;24.40;43.10;;;;;;5086736;28;20198;-71
2020/12/03 12:59:08;;;;;;;13.30;11.00;;;24.40;42.90;;;;;;5086466;28;20848;-70
2020/12/03 13:01:34;;;;;;;14.50;11.50;;;24.30;41.90;;;;;;5087016;28;20545;-70
2020/12/03 13:03:59;;;;;;;14.83;11.93;;;24.30;41.80;;;;;;5085812;28;20197;-72
2020/12/03 13:06:26;;;;;;;14.80;12.00;;;24.20;42.10;;;;;;5086341;28;20194;-73
2020/12/03 13:08:51;;;;;;;12.10;10.90;;;24.20;43.20;;;;;;5086386;28;20549;-72
2020/12/03 13:11:17;;;;;;;11.93;10.70;;;24.20;42.80;;;;;;5086353;28;20447;-71
2020/12/03 13:13:43;;;;;;;12.20;11.00;;;24.10;42.80;;;;;;5085606;28;20212;-70
2020/12/03 13:16:08;;;;;;;11.53;10.40;;;24.10;43.20;;;;;;5086468;28;20207;-71
2020/12/03 13:18:34;;;;;;;11.23;10.10;;;24.00;43.00;;;;;;5085106;28;20223;-71
2020/12/03 13:21:00;;;;;;;22.23;12.57;;;23.90;42.80;;;;;;5089421;28;20178;-72
2020/12/03 13:23:27;;;;;;;14.80;12.80;;;23.70;40.60;;;;;;5090109;28;20251;-71
2020/12/03 13:25:53;;;;;;;13.80;12.40;;;23.30;38.40;;;;;;5090373;28;20197;-72
2020/12/03 13:28:19;;;;;;;15.10;13.70;;;23.10;38.50;;;;;;5088488;28;21010;-72
2020/12/03 13:30:45;;;;;;;16.03;13.83;;;23.20;37.70;;;;;;5090597;28;20440;-73
2020/12/03 13:33:10;;;;;;;21.00;13.10;;;23.30;37.60;;;;;;5088536;28;20232;-73
2020/12/03 13:35:36;;;;;;;15.33;10.97;;;23.50;37.20;;;;;;5089699;28;20844;-73
2020/12/03 13:38:02;;;;;;;17.33;11.10;;;23.70;41.50;;;;;;5089496;28;20621;-72
2020/12/03 13:40:28;;;;;;;11.60;10.50;;;23.80;41.90;;;;;;5089600;28;20533;-71
2020/12/03 13:42:53;;;;;;;13.17;11.77;;;24.00;41.00;;;;;;5089407;28;20186;-72
2020/12/03 13:45:21;;;;;;;12.00;10.80;;;24.00;41.40;;;;;;5089073;28;20214;-71
2020/12/03 13:47:46;;;;;;;12.63;11.43;;;24.10;41.70;;;;;;5087695;28;20225;-72
2020/12/03 13:50:12;;;;;;;12.33;10.90;;;24.10;41.00;;;;;;5088576;28;20666;-72
2020/12/03 13:52:38;;;;;;;10.60;9.40;;;24.10;41.50;;;;;;5089390;28;20186;-72
2020/12/03 13:55:04;;;;;;;11.83;10.10;;;24.10;41.80;;;;;;5089750;28;20263;-70
2020/12/03 13:57:29;;;;;;;10.90;9.77;;;24.10;42.00;;;;;;5089644;28;20593;-70
2020/12/03 13:59:55;;;;;;;12.13;10.77;;;24.10;41.50;;;;;;5089211;28;20189;-72
2020/12/03 14:02:24;;;;;;;11.00;9.90;;;24.10;41.70;;;;;;5089809;28;20183;-71
2020/12/03 14:04:49;;;;;;;10.10;8.80;;;24.20;40.50;;;;;;5088811;28;20638;-72
2020/12/03 14:07:15;;;;;;;10.10;9.10;;;24.40;42.50;;;;;;5089197;28;20498;-72
2020/12/03 14:09:41;;;;;;;11.33;8.80;;;24.80;42.30;;;;;;5088840;28;20564;-70
2020/12/03 14:12:06;;;;;;;11.50;10.23;;;25.00;42.40;;;;;;5089506;28;20267;-69
2020/12/03 14:14:32;;;;;;;12.77;11.57;;;24.80;41.00;;;;;;5088878;28;20216;-72
2020/12/03 14:16:58;;;;;;;11.03;10.03;;;24.70;41.00;;;;;;5089288;28;20180;-69
2020/12/03 14:19:23;;;;;;;12.00;10.70;;;24.70;40.30;;;;;;5089132;28;20645;-69
2020/12/03 14:21:49;;;;;;;12.17;10.97;;;24.60;39.80;;;;;;5087466;28;20285;-71
2020/12/03 14:24:15;;;;;;;10.80;9.73;;;24.40;40.00;;;;;;5087494;28;20188;-69
2020/12/03 14:26:41;;;;;;;11.67;10.47;;;24.40;40.60;;;;;;5088713;28;20426;-70
2020/12/03 14:29:06;;;;;;;11.50;10.40;;;24.30;41.00;;;;;;5088797;28;20594;-71
2020/12/03 14:31:32;;;;;;;15.50;11.33;;;24.20;41.20;;;;;;5088675;28;20696;-71
2020/12/03 14:33:58;;;;;;;10.00;9.17;;;24.10;40.80;;;;;;5088035;28;20281;-72
2020/12/03 14:36:23;;;;;;;20.00;9.90;;;24.10;42.80;;;;;;5088444;28;20493;-72
2020/12/03 14:38:49;;;;;;;11.60;10.40;;;24.10;44.20;;;;;;5088323;28;20263;-71
2020/12/03 14:41:15;;;;;;;12.37;10.77;;;24.30;41.70;;;;;;5087112;28;20187;-74
2020/12/03 14:43:40;;;;;;;11.53;10.37;;;24.20;40.90;;;;;;5088048;28;20224;-71
2020/12/03 14:46:06;;;;;;;13.30;11.47;;;24.10;40.40;;;;;;5088189;28;20657;-69
2020/12/03 14:48:33;;;;;;;13.60;11.57;;;24.10;42.10;;;;;;5088013;28;20186;-70
2020/12/03 14:50:59;;;;;;;17.30;14.60;;;24.00;43.20;;;;;;5088482;28;20173;-70
2020/12/03 14:53:25;;;;;;;15.83;14.00;;;23.90;41.60;;;;;;5088644;28;20508;-70
2020/12/03 14:55:53;;;;;;;21.80;18.33;;;23.90;41.30;;;;;;5088485;28;20661;-73
2020/12/03 14:58:25;;;;;;;20.13;17.10;;;23.90;41.50;;;;;;5088037;28;20178;-73
2020/12/03 15:00:51;;;;;;;19.20;16.47;;;24.00;41.30;;;;;;5087988;28;20401;-71
2020/12/03 15:03:17;;;;;;;16.37;13.70;;;24.00;41.00;;;;;;5087880;28;20828;-73
2020/12/03 15:05:43;;;;;;;16.80;14.60;;;24.00;40.40;;;;;;5087853;28;20177;-74
2020/12/03 15:08:09;;;;;;;14.67;13.27;;;24.00;40.30;;;;;;5087905;28;20422;-73
2020/12/03 15:10:47;;;;;;;17.40;14.37;;;24.10;40.30;;;;;;5087719;28;20188;-74
2020/12/03 15:13:13;;;;;;;19.70;17.63;;;24.10;39.40;;;;;;5086891;28;20995;-75
2020/12/03 15:15:38;;;;;;;18.40;16.50;;;24.00;39.00;;;;;;5087531;28;20419;-71
2020/12/03 15:18:04;;;;;;;16.43;14.73;;;24.00;38.90;;;;;;5086542;28;20913;-73
2020/12/03 15:20:30;;;;;;;15.80;14.20;;;24.00;38.60;;;;;;5087768;28;20508;-75
2020/12/03 15:22:56;;;;;;;16.23;14.50;;;23.90;38.40;;;;;;5087935;28;20273;-78
2020/12/03 15:25:21;;;;;;;14.60;13.10;;;23.90;38.30;;;;;;5086481;28;20203;-77
2020/12/03 15:27:47;;;;;;;15.60;14.13;;;23.80;38.10;;;;;;5087615;28;20181;-76
2020/12/03 15:30:13;;;;;;;14.20;12.70;;;23.70;38.10;;;;;;5087953;28;20511;-76
2020/12/03 15:32:38;;;;;;;15.10;13.60;;;23.70;38.10;;;;;;5087063;28;20192;-77
2020/12/03 15:35:04;;;;;;;17.70;15.30;;;23.60;38.00;;;;;;5087953;28;20204;-77
2020/12/03 15:37:30;;;;;;;16.27;14.53;;;23.60;38.10;;;;;;5085725;28;20182;-75
2020/12/03 15:39:56;;;;;;;15.53;14.00;;;23.50;38.10;;;;;;5086372;28;20184;-74
2020/12/03 15:42:22;;;;;;;15.27;13.67;;;23.50;38.10;;;;;;5084707;28;20293;-76
2020/12/03 15:44:51;;;;;;;15.07;13.47;;;23.40;38.10;;;;;;5086546;28;20434;-75
2020/12/03 15:47:18;;;;;;;15.13;13.63;;;23.40;38.10;;;;;;5084949;28;20480;-76
2020/12/03 15:49:45;;;;;;;15.90;14.20;;;23.30;38.00;;;;;;5085864;28;20424;-75
2020/12/03 15:52:11;;;;;;;16.40;14.80;;;23.20;37.90;;;;;;5087309;28;20405;-76
2020/12/03 15:54:37;;;;;;;17.10;14.80;;;23.20;38.00;;;;;;5087462;28;20534;-74
2020/12/03 15:57:03;;;;;;;14.97;13.47;;;23.20;38.00;;;;;;5085071;28;20799;-76
2020/12/03 15:59:30;;;;;;;16.30;14.17;;;23.20;37.90;;;;;;5085224;28;20196;-75
2020/12/03 16:01:59;;;;;;;23.50;14.20;;;23.10;37.90;;;;;;5086028;28;20413;-74
2020/12/03 16:04:29;;;;;;;17.63;15.27;;;23.10;41.50;;;;;;5086438;28;20528;-75
2020/12/03 16:06:56;;;;;;;15.13;13.57;;;23.20;40.10;;;;;;5086501;28;20780;-74
2020/12/03 16:09:23;;;;;;;14.80;12.73;;;23.20;42.10;;;;;;5086978;28;20425;-73
2020/12/03 16:11:49;;;;;;;15.03;12.80;;;23.30;41.40;;;;;;5085199;28;20429;-73
2020/12/03 16:14:15;;;;;;;13.90;12.53;;;23.30;41.00;;;;;;5086826;28;20488;-72
2020/12/03 16:16:41;;;;;;;12.37;11.07;;;23.30;40.40;;;;;;5083938;28;20553;-74
2020/12/03 16:19:07;;;;;;;14.40;12.37;;;23.40;39.90;;;;;;5085539;28;20520;-73
2020/12/03 16:21:34;;;;;;;13.37;12.00;;;23.50;39.60;;;;;;5085420;28;20972;-73
2020/12/03 16:24:02;;;;;;;11.40;10.30;;;23.50;39.10;;;;;;5086187;28;20409;-72
2020/12/03 16:26:29;;;;;;;13.03;11.73;;;23.50;38.80;;;;;;5085772;28;20414;-74
2020/12/03 16:28:55;;;;;;;11.97;10.87;;;23.60;38.50;;;;;;5086177;28;20805;-73
2020/12/03 16:31:28;;;;;;;13.00;11.70;;;23.60;38.10;;;;;;5084966;28;20421;-73
2020/12/03 16:33:55;;;;;;;16.70;11.93;;;23.60;38.00;;;;;;5084808;28;20487;-72
2020/12/03 16:36:27;;;;;;;12.93;11.47;;;23.70;41.20;;;;;;5086032;28;20414;-73
2020/12/03 16:38:54;;;;;;;14.50;13.00;;;23.60;39.60;;;;;;5086008;28;20419;-72
2020/12/03 16:41:26;;;;;;;13.80;12.40;;;23.60;40.10;;;;;;5084988;28;20411;-74
2020/12/03 16:43:53;;;;;;;19.30;16.27;;;23.60;39.60;;;;;;5087149;28;20505;-76
2020/12/03 16:46:21;;;;;;;16.83;14.20;;;23.50;39.30;;;;;;5087022;28;20827;-74
2020/12/03 16:48:49;;;;;;;16.03;14.00;;;23.50;38.90;;;;;;5086837;28;20425;-76
2020/12/03 16:51:17;;;;;;;15.43;14.00;;;23.40;38.60;;;;;;5088485;28;20417;-73
2020/12/03 16:53:43;;;;;;;15.33;13.73;;;23.30;38.40;;;;;;5087595;28;20468;-73
2020/12/03 16:56:29;;;;;;;14.40;12.90;;;23.30;38.20;;;;;;5089842;28;20440;-73
2020/12/03 16:58:56;;;;;;;14.47;13.07;;;23.20;38.10;;;;;;5091354;28;20433;-73
2020/12/03 17:01:23;;;;;;;15.50;13.37;;;23.20;38.00;;;;;;5092080;28;20500;-72
2020/12/03 17:03:48;;;;;;;13.70;12.30;;;23.20;38.00;;;;;;5091637;28;20426;-73
2020/12/03 17:06:15;;;;;;;15.23;12.90;;;23.10;37.80;;;;;;5090983;28;20463;-70
2020/12/03 17:08:41;;;;;;;15.10;12.20;;;23.10;39.10;;;;;;5090951;28;20439;-72
2020/12/03 17:11:08;;;;;;;13.73;12.23;;;23.10;38.50;;;;;;5092431;28;20429;-72
2020/12/03 17:13:35;;;;;;;14.10;12.60;;;23.10;38.40;;;;;;5091661;28;20472;-72
2020/12/03 17:16:01;;;;;;;12.80;11.50;;;23.00;38.20;;;;;;5091466;28;21031;-72
2020/12/03 17:18:27;;;;;;;14.67;13.07;;;23.00;38.10;;;;;;5089637;28;20443;-72
2020/12/03 17:20:53;;;;;;;13.23;11.93;;;23.00;38.00;;;;;;5091036;28;20412;-71
2020/12/03 17:23:19;;;;;;;13.10;11.80;;;22.90;37.80;;;;;;5091416;28;20740;-74
2020/12/03 17:25:45;;;;;;;13.63;12.30;;;22.90;37.70;;;;;;5092091;28;20420;-73
2020/12/03 17:28:11;;;;;;;12.20;11.00;;;22.90;37.80;;;;;;5092109;28;20420;-74
2020/12/03 17:30:37;;;;;;;13.63;12.20;;;22.90;37.80;;;;;;5092640;28;20428;-73
2020/12/03 17:33:03;;;;;;;11.83;10.73;;;22.80;37.70;;;;;;5090819;28;20476;-74
2020/12/03 17:35:29;;;;;;;12.43;11.13;;;22.90;37.60;;;;;;5092081;28;20433;-74
2020/12/03 17:37:55;;;;;;;12.80;11.50;;;22.90;39.00;;;;;;5091559;28;20444;-73
2020/12/03 17:40:22;;;;;;;11.47;10.27;;;23.00;37.90;;;;;;5091625;28;20862;-73
2020/12/03 17:42:50;;;;;;;11.90;10.80;;;23.10;37.70;;;;;;5091559;28;20419;-74
2020/12/03 17:45:16;;;;;;;12.40;11.20;;;23.10;37.50;;;;;;5091785;28;20418;-74
2020/12/03 17:47:42;;;;;;;11.90;10.63;;;23.20;37.30;;;;;;5090649;28;20433;-74
2020/12/03 17:50:08;;;;;;;11.50;10.30;;;23.30;37.30;;;;;;5090184;28;20427;-73
2020/12/03 17:52:34;;;;;;;11.90;10.70;;;23.30;36.90;;;;;;5088867;28;20419;-73
2020/12/03 17:55:00;;;;;;;15.20;12.13;;;23.30;36.80;;;;;;5091582;28;20509;-73
2020/12/03 17:57:26;;;;;;;12.57;11.27;;;23.40;36.90;;;;;;5091065;28;20414;-74
2020/12/03 17:59:53;;;;;;;14.00;12.60;;;23.40;36.80;;;;;;5090079;28;20418;-73
2020/12/03 18:02:19;;;;;;;13.30;12.00;;;23.50;36.90;;;;;;5091064;28;20496;-73
2020/12/03 18:04:46;;;;;;;12.50;11.20;;;23.40;36.50;;;;;;5089919;28;20412;-74
2020/12/03 18:07:12;;;;;;;12.80;11.50;;;23.40;37.30;;;;;;5089924;28;20417;-74
2020/12/03 18:09:38;;;;;;;12.10;10.93;;;23.40;36.50;;;;;;5089738;28;20955;-73
2020/12/03 18:12:05;;;;;;;13.07;11.77;;;23.40;36.50;;;;;;5089583;28;20425;-73
2020/12/03 18:14:31;;;;;;;11.40;10.30;;;23.30;36.50;;;;;;5090061;28;20463;-72
2020/12/03 18:16:57;;;;;;;11.53;10.33;;;23.30;37.00;;;;;;5089892;28;20920;-72
2020/12/03 18:19:23;;;;;;;12.60;10.67;;;23.20;37.00;;;;;;5090732;28;20419;-73
2020/12/03 18:21:49;;;;;;;12.40;10.87;;;23.20;37.00;;;;;;5091062;28;20907;-72
2020/12/03 18:24:15;;;;;;;12.50;10.67;;;23.20;37.50;;;;;;5089972;28;21019;-72
2020/12/03 18:26:41;;;;;;;13.10;10.07;;;23.20;39.00;;;;;;5091040;28;20406;-73
2020/12/03 18:29:09;;;;;;;12.43;10.30;;;23.20;39.30;;;;;;5088838;28;20471;-74
2020/12/03 18:31:43;;;;;;;14.73;10.63;;;23.20;39.40;;;;;;5084195;28;20461;-73
2020/12/03 18:34:10;;;;;;;10.73;9.63;;;23.10;39.00;;;;;;5088353;28;20481;-74
2020/12/03 18:36:38;;;;;;;11.83;10.63;;;23.10;38.70;;;;;;5088218;28;20500;-74
2020/12/03 18:39:10;;;;;;;12.03;10.73;;;23.00;38.40;;;;;;5086822;28;20425;-73
2020/12/03 18:41:50;;;;;;;11.07;9.50;;;23.00;38.10;;;;;;5086078;28;20504;-75
2020/12/03 18:44:16;;;;;;;10.77;9.30;;;23.10;37.80;;;;;;5088657;28;20417;-74
2020/12/03 18:46:46;;;;;;;10.67;9.67;;;23.10;38.20;;;;;;5087903;28;20429;-73
2020/12/03 18:49:12;;;;;;;10.77;9.77;;;23.20;37.50;;;;;;5087375;28;20433;-73
2020/12/03 18:51:38;;;;;;;13.10;9.80;;;23.30;37.30;;;;;;5088452;28;20433;-74
2020/12/03 18:54:04;;;;;;;10.77;9.57;;;23.30;37.00;;;;;;5070279;28;20478;-72
2020/12/03 18:56:30;;;;;;;10.90;9.80;;;23.40;37.00;;;;;;5088678;28;20422;-74
2020/12/03 18:58:57;;;;;;;11.93;10.63;;;23.30;36.80;;;;;;5088436;28;20433;-73
2020/12/03 19:01:23;;;;;;;10.33;9.30;;;23.30;36.50;;;;;;5087919;28;20509;-74
2020/12/03 19:03:50;;;;;;;11.20;10.00;;;23.30;36.40;;;;;;5087030;28;21114;-73
2020/12/03 19:06:22;;;;;;;10.93;9.80;;;23.30;36.30;;;;;;5087789;28;20412;-73
2020/12/03 19:08:49;;;;;;;11.10;10.00;;;23.40;36.30;;;;;;5085711;28;20542;-73
2020/12/03 19:11:18;;;;;;;10.60;9.57;;;23.30;37.00;;;;;;5087855;28;20411;-73
2020/12/03 19:13:45;;;;;;;10.50;9.40;;;23.30;36.20;;;;;;5087406;28;20468;-73
2020/12/03 19:16:12;;;;;;;10.43;9.43;;;23.20;36.20;;;;;;5090958;28;20410;-74
2020/12/03 19:18:38;;;;;;;9.97;8.97;;;23.20;36.20;;;;;;5088279;28;21303;-73
2020/12/03 19:21:04;;;;;;;13.57;10.73;;;23.20;36.20;;;;;;5089398;28;20409;-74
2020/12/03 19:23:31;;;;;;;11.90;10.60;;;23.10;36.70;;;;;;5088706;28;20462;-71
2020/12/03 19:25:57;;;;;;;11.73;10.10;;;23.20;37.60;;;;;;5090484;28;20418;-72
2020/12/03 19:28:23;;;;;;;10.97;9.87;;;23.20;37.30;;;;;;5089339;28;20417;-73
2020/12/03 19:30:49;;;;;;;11.37;10.23;;;23.20;37.40;;;;;;5090114;28;20509;-75
2020/12/03 19:33:15;;;;;;;18.93;10.80;;;23.30;37.60;;;;;;5088806;28;20564;-75
2020/12/03 19:35:41;;;;;;;10.97;9.87;;;23.30;37.60;;;;;;5090385;28;20421;-75
2020/12/03 19:38:07;;;;;;;12.60;11.30;;;23.30;37.50;;;;;;5089385;28;20413;-75
2020/12/03 19:40:33;;;;;;;12.33;11.03;;;23.30;37.40;;;;;;5090172;28;20813;-73
2020/12/03 19:42:59;;;;;;;12.37;11.10;;;23.30;37.40;;;;;;5089208;28;20507;-74
2020/12/03 19:45:25;;;;;;;12.57;11.23;;;23.30;37.30;;;;;;5089418;28;20427;-71
2020/12/03 19:47:51;;;;;;;14.93;11.60;;;23.30;37.20;;;;;;5090500;28;20478;-72
2020/12/03 19:50:18;;;;;;;12.20;10.90;;;23.30;37.20;;;;;;5090349;28;20413;-72
2020/12/03 19:52:44;;;;;;;13.77;12.37;;;23.30;37.30;;;;;;5090001;28;20455;-74
2020/12/03 19:55:10;;;;;;;12.47;10.97;;;23.30;37.30;;;;;;5089685;28;20476;-72
2020/12/03 19:57:36;;;;;;;13.07;11.80;;;23.30;37.60;;;;;;5089899;28;20405;-76
2020/12/03 20:00:03;;;;;;;12.97;11.67;;;23.40;39.40;;;;;;5090576;28;20417;-72
2020/12/03 20:02:29;;;;;;;16.20;14.23;;;23.30;40.10;;;;;;5089627;28;20504;-72
2020/12/03 20:04:55;;;;;;;23.30;17.17;;;23.30;40.50;;;;;;5087424;28;20524;-74
2020/12/03 20:08:30;;;;;;;21.80;18.60;;;23.30;40.40;;;;;;5147498;27;20553;-73
2020/12/03 20:10:56;;;;;;;19.40;16.10;;;23.20;40.10;;;;;;5127641;28;20404;-74
2020/12/03 20:13:22;;;;;;;18.70;16.63;;;23.10;39.80;;;;;;5126099;27;20419;-73
2020/12/03 20:15:48;;;;;;;17.73;15.73;;;23.00;39.40;;;;;;5101065;27;20423;-73
2020/12/03 20:18:14;;;;;;;17.07;14.90;;;22.90;39.20;;;;;;5104504;28;20983;-72
2020/12/03 20:20:40;;;;;;;18.33;15.60;;;22.80;39.00;;;;;;5103831;28;20412;-73
2020/12/03 20:23:06;;;;;;;15.73;14.13;;;22.70;38.90;;;;;;5105149;28;20405;-74
2020/12/03 20:25:32;;;;;;;16.67;14.87;;;22.60;38.70;;;;;;5105083;28;20409;-74
2020/12/03 20:27:58;;;;;;;16.70;14.07;;;22.40;38.70;;;;;;5107058;28;20463;-74
2020/12/03 20:30:24;;;;;;;15.60;13.50;;;22.30;38.60;;;;;;5106694;28;20412;-72
2020/12/03 20:32:50;;;;;;;15.03;13.23;;;22.20;39.20;;;;;;5105400;28;20575;-72
2020/12/03 20:35:16;;;;;;;15.10;13.17;;;22.20;40.30;;;;;;5106501;28;20484;-71
2020/12/03 20:37:42;;;;;;;14.33;12.07;;;22.10;40.10;;;;;;5106664;28;20879;-71
2020/12/03 20:40:08;;;;;;;13.87;12.20;;;22.00;40.00;;;;;;5107583;28;20404;-71
2020/12/03 20:42:34;;;;;;;14.00;12.50;;;22.00;39.90;;;;;;5107544;28;20408;-69
2020/12/03 20:45:00;;;;;;;14.87;12.97;;;21.90;39.80;;;;;;5107168;28;21127;-69
2020/12/03 20:47:26;;;;;;;14.43;12.50;;;21.80;39.60;;;;;;5106353;28;20470;-70
2020/12/03 20:49:53;;;;;;;14.57;12.23;;;21.80;39.60;;;;;;5105617;28;20416;-71
2020/12/03 20:52:19;;;;;;;13.80;12.47;;;21.70;39.50;;;;;;5105571;28;20412;-74
2020/12/03 20:54:45;;;;;;;15.37;12.80;;;21.70;39.50;;;;;;5106641;27;20489;-71
2020/12/03 20:57:10;;;;;;;14.93;13.43;;;21.60;39.40;;;;;;5123244;27;20411;-71
2020/12/03 20:59:36;;;;;;;14.97;13.37;;;21.60;39.40;;;;;;5125748;28;20418;-71
2020/12/03 21:02:03;;;;;;;14.60;13.10;;;21.50;39.30;;;;;;5126094;28;20507;-73
2020/12/03 21:04:29;;;;;;;14.50;12.57;;;21.50;39.30;;;;;;5125167;27;20411;-73
2020/12/03 21:06:55;;;;;;;12.23;11.03;;;21.40;39.20;;;;;;5123779;28;20543;-71
2020/12/03 21:09:21;;;;;;;12.20;10.90;;;21.40;39.20;;;;;;5124255;28;20415;-72
2020/12/03 21:11:48;;;;;;;13.83;12.40;;;21.30;39.20;;;;;;5125381;28;20447;-73
2020/12/03 21:14:14;;;;;;;13.83;12.30;;;21.30;39.10;;;;;;5125784;27;20404;-71
2020/12/03 21:16:40;;;;;;;13.53;12.13;;;21.30;39.20;;;;;;5124071;27;20423;-74
2020/12/03 21:19:06;;;;;;;13.20;11.90;;;21.20;39.20;;;;;;5115766;27;20512;-72